createdAt,value
2017-11-03T00:02:26.808Z,3.53
2017-11-03T00:04:54.251Z,3.33
2017-11-03T00:07:21.679Z,3.83
2017-11-03T00:09:49.908Z,3.30
2017-11-03T00:12:17.677Z,3.67
2017-11-03T00:14:45.102Z,3.80
2017-11-03T00:17:12.917Z,3.27
2017-11-03T00:19:41.173Z,3.23
2017-11-03T00:22:08.625Z,3.33
2017-11-03T00:24:38.725Z,3.23
2017-11-03T00:27:06.211Z,3.17
2017-11-03T00:29:34.017Z,3.00
2017-11-03T00:32:02.235Z,4.17
2017-11-03T00:34:30.649Z,3.70
2017-11-03T00:36:58.485Z,4.27
2017-11-03T00:39:25.957Z,3.27
2017-11-03T00:41:53.395Z,4.00
2017-11-03T00:44:21.202Z,3.37
2017-11-03T00:46:48.624Z,4.10
2017-11-03T00:49:16.488Z,3.37
2017-11-03T00:51:44.677Z,3.20
2017-11-03T00:54:12.866Z,3.60
2017-11-03T00:56:41.313Z,3.20
2017-11-03T00:59:09.124Z,3.27
2017-11-03T01:01:37.318Z,3.30
2017-11-03T01:04:05.529Z,3.40
2017-11-03T01:06:33.814Z,3.03
2017-11-03T01:09:02.013Z,3.13
2017-11-03T01:11:31.281Z,3.37
2017-11-03T01:13:58.701Z,3.00
2017-11-03T01:16:26.585Z,2.70
2017-11-03T01:18:54.895Z,3.53
2017-11-03T01:21:23.082Z,3.20
2017-11-03T01:23:51.339Z,3.00
2017-11-03T01:26:19.469Z,3.60
2017-11-03T01:28:47.317Z,3.63
2017-11-03T01:31:16.245Z,3.30
2017-11-03T01:33:44.137Z,3.17
2017-11-03T01:36:11.953Z,2.73
2017-11-03T01:38:40.177Z,3.33
2017-11-03T01:41:08.661Z,2.67
2017-11-03T01:43:36.934Z,3.13
2017-11-03T01:46:04.817Z,3.33
2017-11-03T01:48:32.261Z,3.47
2017-11-03T01:50:59.716Z,3.60
2017-11-03T01:53:27.164Z,3.73
2017-11-03T01:55:54.933Z,3.83
2017-11-03T01:58:23.506Z,4.10
2017-11-03T02:00:50.925Z,3.60
2017-11-03T02:03:19.457Z,3.77
2017-11-03T02:05:48.017Z,3.50
2017-11-03T02:08:15.500Z,4.10
2017-11-03T02:10:43.700Z,4.00
2017-11-03T02:13:11.129Z,4.30
2017-11-03T02:15:38.588Z,4.50
2017-11-03T02:18:06.265Z,4.40
2017-11-03T02:20:33.681Z,5.00
2017-11-03T02:23:01.501Z,4.80
2017-11-03T02:25:29.029Z,4.50
2017-11-03T02:27:56.453Z,4.50
2017-11-03T02:30:24.672Z,4.30
2017-11-03T02:32:52.864Z,4.63
2017-11-03T02:35:20.289Z,5.10
2017-11-03T02:37:47.716Z,5.10
2017-11-03T02:40:15.934Z,4.90
2017-11-03T02:42:43.351Z,4.93
2017-11-03T02:45:12.284Z,4.80
2017-11-03T02:47:40.060Z,4.50
2017-11-03T02:50:07.505Z,4.60
2017-11-03T02:52:34.921Z,4.97
2017-11-03T02:55:03.137Z,4.43
2017-11-03T02:57:30.568Z,4.80
2017-11-03T02:59:58.380Z,5.77
2017-11-03T03:02:25.820Z,5.33
2017-11-03T03:04:53.236Z,4.97
2017-11-03T03:07:20.729Z,4.90
2017-11-03T03:09:48.493Z,5.40
2017-11-03T03:12:17.057Z,5.57
2017-11-03T03:14:44.896Z,5.47
2017-11-03T03:17:13.012Z,5.63
2017-11-03T03:19:41.293Z,5.50
2017-11-03T03:22:09.856Z,5.70
2017-11-03T03:24:37.324Z,6.00
2017-11-03T03:27:04.748Z,5.80
2017-11-03T03:29:32.949Z,5.60
2017-11-03T03:32:00.725Z,5.90
2017-11-03T03:34:28.180Z,5.70
2017-11-03T03:36:56.745Z,6.00
2017-11-03T03:39:24.224Z,5.13
2017-11-03T03:41:51.653Z,5.93
2017-11-03T03:44:19.088Z,6.13
2017-11-03T03:46:48.341Z,7.27
2017-11-03T03:49:16.165Z,6.70
2017-11-03T03:51:44.739Z,7.60
2017-11-03T03:54:13.268Z,7.10
2017-11-03T03:56:41.831Z,7.57
2017-11-03T03:59:09.313Z,7.60
2017-11-03T04:01:37.201Z,7.20
2017-11-03T04:04:04.614Z,7.87
2017-11-03T04:06:32.034Z,7.37
2017-11-03T04:08:59.752Z,8.20
2017-11-03T04:11:27.209Z,7.13
2017-11-03T04:13:55.485Z,7.97
2017-11-03T04:16:24.057Z,8.30
2017-11-03T04:18:52.352Z,7.97
2017-11-03T04:21:19.805Z,8.70
2017-11-03T04:23:47.568Z,9.67
2017-11-03T04:26:14.998Z,8.73
2017-11-03T04:28:42.486Z,7.93
2017-11-03T04:31:10.248Z,9.10
2017-11-03T04:33:38.112Z,9.37
2017-11-03T04:36:05.981Z,9.37
2017-11-03T04:38:33.749Z,9.33
2017-11-03T04:41:01.189Z,9.77
2017-11-03T04:43:28.609Z,9.67
2017-11-03T04:45:57.689Z,8.63
2017-11-03T04:48:25.120Z,9.57
2017-11-03T04:50:52.569Z,10.30
2017-11-03T04:53:20.741Z,10.00
2017-11-03T04:55:49.325Z,8.80
2017-11-03T04:58:16.797Z,10.33
2017-11-03T05:00:44.228Z,10.00
2017-11-03T05:03:11.653Z,11.60
2017-11-03T05:05:39.845Z,8.97
2017-11-03T05:08:07.538Z,9.93
2017-11-03T05:10:34.960Z,11.77
2017-11-03T05:13:02.861Z,11.60
2017-11-03T05:15:30.314Z,8.93
2017-11-03T05:17:57.769Z,10.83
2017-11-03T05:20:25.200Z,11.00
2017-11-03T05:22:53.709Z,10.80
2017-11-03T05:25:21.141Z,11.90
2017-11-03T05:27:48.965Z,10.40
2017-11-03T05:30:16.409Z,11.13
2017-11-03T05:32:43.837Z,9.93
2017-11-03T05:35:11.268Z,11.00
2017-11-03T05:37:39.780Z,9.97
2017-11-03T05:40:08.588Z,9.23
2017-11-03T05:42:36.022Z,10.63
2017-11-03T05:45:03.479Z,11.47
2017-11-03T05:47:31.661Z,11.17
2017-11-03T05:50:00.037Z,11.80
2017-11-03T05:52:28.113Z,11.30
2017-11-03T05:54:56.389Z,12.77
2017-11-03T05:57:24.669Z,12.43
2017-11-03T05:59:52.732Z,13.63
2017-11-03T06:02:20.935Z,12.07
2017-11-03T06:04:49.206Z,13.50
2017-11-03T06:07:17.701Z,10.97
2017-11-03T06:09:45.521Z,11.73
2017-11-03T06:12:13.713Z,11.17
2017-11-03T06:14:41.917Z,10.70
2017-11-03T06:17:10.165Z,14.33
2017-11-03T06:19:38.353Z,13.97
2017-11-03T06:22:06.561Z,14.60
2017-11-03T06:24:34.761Z,14.07
2017-11-03T06:27:02.952Z,11.70
2017-11-03T06:29:31.363Z,11.53
2017-11-03T06:31:59.205Z,12.10
2017-11-03T06:34:26.661Z,13.13
2017-11-03T06:36:54.118Z,18.37
2017-11-03T06:39:21.553Z,18.33
2017-11-03T06:41:48.989Z,18.87
2017-11-03T06:44:17.205Z,20.77
2017-11-03T06:46:45.481Z,24.10
2017-11-03T06:49:14.074Z,20.83
2017-11-03T06:51:42.242Z,22.57
2017-11-03T06:54:10.086Z,20.50
2017-11-03T06:56:38.263Z,20.40
2017-11-03T06:59:06.469Z,23.30
2017-11-03T07:01:34.737Z,20.73
2017-11-03T07:04:02.937Z,22.67
2017-11-03T07:06:31.901Z,20.57
2017-11-03T07:08:59.333Z,22.37
2017-11-03T07:11:27.626Z,19.50
2017-11-03T07:13:56.405Z,19.33
2017-11-03T07:16:23.853Z,22.97
2017-11-03T07:18:51.317Z,20.60
2017-11-03T07:21:18.764Z,20.87
2017-11-03T07:23:46.190Z,23.07
2017-11-03T07:26:14.756Z,23.10
2017-11-03T07:28:43.289Z,23.07
2017-11-03T07:31:10.725Z,24.50
2017-11-03T07:33:38.201Z,23.17
2017-11-03T07:38:40.828Z,24.10
2017-11-03T07:41:10.096Z,23.23
2017-11-03T07:43:37.561Z,22.70
2017-11-03T07:46:05.393Z,25.03
2017-11-03T07:48:33.606Z,25.70
2017-11-03T07:51:01.881Z,24.57
2017-11-03T07:53:29.305Z,26.93
2017-11-03T07:55:57.090Z,29.87
2017-11-03T07:58:25.273Z,52.20
2017-11-03T08:00:52.729Z,35.83
2017-11-03T08:03:20.173Z,38.90
2017-11-03T08:05:48.001Z,39.90
2017-11-03T08:08:16.195Z,42.77
2017-11-03T08:10:44.501Z,42.37
2017-11-03T08:13:11.938Z,41.87
2017-11-03T08:15:39.773Z,44.13
2017-11-03T08:18:08.308Z,42.23
2017-11-03T08:20:37.108Z,44.97
2017-11-03T08:23:05.373Z,45.10
2017-11-03T08:25:33.576Z,42.60
2017-11-03T08:28:02.359Z,46.83
2017-11-03T08:30:29.912Z,46.80
2017-11-03T08:32:58.377Z,50.50
2017-11-03T08:35:26.653Z,51.30
2017-11-03T08:37:54.531Z,72.83
2017-11-03T08:40:23.006Z,73.27
2017-11-03T08:42:51.276Z,80.80
2017-11-03T08:45:19.851Z,80.50
2017-11-03T08:47:47.625Z,71.63
2017-11-03T08:50:16.424Z,80.40
2017-11-03T08:52:43.861Z,82.40
2017-11-03T08:55:12.689Z,91.70
2017-11-03T08:57:41.627Z,88.37
2017-11-03T09:00:09.117Z,95.20
2017-11-03T09:02:36.873Z,103.35
2017-11-03T09:05:04.341Z,107.10
2017-11-03T09:07:32.541Z,103.13
2017-11-03T09:09:59.997Z,102.97
2017-11-03T09:12:27.837Z,101.07
2017-11-03T09:14:55.277Z,100.50
2017-11-03T09:17:24.502Z,101.13
2017-11-03T09:19:52.040Z,103.87
2017-11-03T09:22:19.460Z,105.20
2017-11-03T09:24:47.373Z,99.83
2017-11-03T09:27:15.215Z,105.37
2017-11-03T09:29:44.001Z,105.93
2017-11-03T09:32:11.474Z,107.17
2017-11-03T09:34:38.912Z,106.70
2017-11-03T09:37:06.401Z,105.87
2017-11-03T09:39:33.853Z,105.03
2017-11-03T09:42:01.305Z,104.17
2017-11-03T09:44:28.769Z,104.20
2017-11-03T09:46:56.325Z,102.10
2017-11-03T09:49:23.765Z,99.93
2017-11-03T09:51:51.200Z,103.87
2017-11-03T09:54:19.104Z,99.13
2017-11-03T09:56:46.546Z,101.93
2017-11-03T09:59:13.977Z,104.60
2017-11-03T10:01:42.197Z,101.37
2017-11-03T10:04:10.073Z,96.50
2017-11-03T10:06:37.929Z,99.47
2017-11-03T10:09:05.381Z,97.57
2017-11-03T10:11:33.590Z,92.53
2017-11-03T10:14:01.785Z,94.00
2017-11-03T10:16:30.005Z,90.40
2017-11-03T10:18:58.294Z,92.90
2017-11-03T10:21:26.161Z,88.40
2017-11-03T10:23:53.617Z,87.67
2017-11-03T10:26:21.448Z,85.87
2017-11-03T10:28:48.936Z,87.20
2017-11-03T10:31:16.781Z,87.23
2017-11-03T10:33:44.217Z,87.13
2017-11-03T10:36:12.425Z,82.23
2017-11-03T10:38:41.685Z,80.93
2017-11-03T10:41:09.121Z,77.90
2017-11-03T10:43:36.611Z,78.20
2017-11-03T10:46:04.161Z,77.23
2017-11-03T10:48:31.598Z,76.23
2017-11-03T10:50:59.453Z,75.80
2017-11-03T10:53:27.353Z,77.77
2017-11-03T10:55:54.785Z,77.57
2017-11-03T10:58:22.224Z,76.63
2017-11-03T11:00:50.437Z,75.97
2017-11-03T11:03:17.922Z,75.57
2017-11-03T11:05:45.360Z,74.13
2017-11-03T11:08:12.820Z,73.77
2017-11-03T11:10:41.018Z,73.83
2017-11-03T11:13:09.961Z,75.00
2017-11-03T11:15:37.418Z,72.33
2017-11-03T11:18:05.713Z,71.33
2017-11-03T11:20:33.924Z,72.20
2017-11-03T11:23:03.185Z,71.50
2017-11-03T11:25:30.645Z,67.70
2017-11-03T11:27:58.478Z,70.07
2017-11-03T11:30:26.325Z,63.90
2017-11-03T11:32:54.529Z,66.43
2017-11-03T11:35:21.965Z,70.27
2017-11-03T11:37:50.493Z,66.83
2017-11-03T11:40:17.956Z,67.63
2017-11-03T11:42:45.390Z,66.00
2017-11-03T11:45:13.170Z,65.53
2017-11-03T11:47:41.738Z,63.27
2017-11-03T11:50:10.314Z,62.80
2017-11-03T11:52:37.793Z,61.33
2017-11-03T11:55:05.229Z,60.20
2017-11-03T11:57:32.705Z,61.53
2017-11-03T12:00:00.546Z,58.40
2017-11-03T12:02:28.000Z,60.50
2017-11-03T12:04:55.829Z,58.47
2017-11-03T12:07:23.365Z,57.00
2017-11-03T12:09:51.562Z,56.57
2017-11-03T12:12:19.809Z,57.20
2017-11-03T12:14:48.081Z,56.33
2017-11-03T12:17:16.664Z,57.37
2017-11-03T12:19:44.097Z,57.10
2017-11-03T12:22:11.937Z,52.67
2017-11-03T12:24:40.144Z,49.67
2017-11-03T12:27:07.572Z,51.43
2017-11-03T12:29:35.785Z,53.03
2017-11-03T12:32:03.605Z,56.07
2017-11-03T12:34:31.841Z,55.83
2017-11-03T12:36:59.293Z,53.40
2017-11-03T12:39:26.765Z,53.33
2017-11-03T12:41:54.953Z,50.07
2017-11-03T12:44:23.504Z,50.73
2017-11-03T12:46:51.787Z,49.50
2017-11-03T12:49:19.614Z,47.13
2017-11-03T12:51:47.932Z,46.70
2017-11-03T12:54:15.762Z,50.57
2017-11-03T12:56:43.585Z,51.53
2017-11-03T12:59:11.317Z,53.07
2017-11-03T13:01:38.781Z,56.13
2017-11-03T13:04:06.238Z,56.33
2017-11-03T13:06:34.389Z,55.57
2017-11-03T13:09:02.213Z,53.07
2017-11-03T13:11:31.171Z,52.70
2017-11-03T13:13:58.629Z,52.43
2017-11-03T13:16:26.462Z,53.03
2017-11-03T13:18:53.944Z,55.27
2017-11-03T13:21:22.446Z,54.30
2017-11-03T13:23:50.297Z,53.10
2017-11-03T13:26:18.493Z,52.80
2017-11-03T13:28:45.948Z,50.83
2017-11-03T13:31:13.439Z,54.63
2017-11-03T13:33:40.872Z,52.67
2017-11-03T13:36:08.350Z,51.23
2017-11-03T13:38:35.781Z,51.90
2017-11-03T13:41:03.218Z,54.23
2017-11-03T13:43:31.438Z,51.80
2017-11-03T13:45:59.637Z,52.00
2017-11-03T13:48:27.073Z,52.30
2017-11-03T13:50:55.553Z,55.30
2017-11-03T13:53:23.418Z,54.20
2017-11-03T13:55:50.854Z,55.80
2017-11-03T13:58:18.537Z,54.30
2017-11-03T14:00:45.977Z,55.23
2017-11-03T14:03:13.458Z,55.70
2017-11-03T14:05:41.293Z,53.33
2017-11-03T14:08:08.728Z,56.13
2017-11-03T14:10:37.049Z,54.70
2017-11-03T14:13:04.896Z,54.00
2017-11-03T14:15:32.368Z,54.83
2017-11-03T14:17:59.785Z,54.93
2017-11-03T14:20:27.625Z,54.17
2017-11-03T14:22:55.250Z,54.60
2017-11-03T14:25:22.661Z,53.23
2017-11-03T14:27:51.200Z,54.23
2017-11-03T14:30:18.653Z,52.87
2017-11-03T14:32:46.105Z,53.60
2017-11-03T14:35:13.953Z,54.23
2017-11-03T14:37:43.177Z,53.20
2017-11-03T14:40:10.622Z,53.80
2017-11-03T14:42:38.701Z,55.20
2017-11-03T14:45:06.533Z,55.27
2017-11-03T14:47:34.737Z,57.93
2017-11-03T14:50:03.029Z,59.77
2017-11-03T14:52:31.223Z,60.87
2017-11-03T14:54:59.473Z,58.50
2017-11-03T14:57:27.689Z,59.73
2017-11-03T14:59:55.885Z,58.67
2017-11-03T15:02:23.721Z,60.73
2017-11-03T15:04:51.449Z,57.77
2017-11-03T15:07:18.889Z,56.53
2017-11-03T15:09:46.780Z,55.30
2017-11-03T15:12:14.236Z,55.67
2017-11-03T15:14:42.833Z,55.60
2017-11-03T15:17:10.275Z,53.93
2017-11-03T15:19:38.753Z,58.60
2017-11-03T15:22:07.034Z,58.70
2017-11-03T15:24:35.607Z,58.33
2017-11-03T15:27:03.061Z,60.00
2017-11-03T15:29:31.353Z,60.27
2017-11-03T15:31:59.182Z,59.03
2017-11-03T15:34:26.891Z,60.83
2017-11-03T15:36:54.322Z,64.20
2017-11-03T15:39:21.780Z,68.53
2017-11-03T15:41:49.558Z,74.67
2017-11-03T15:44:17.823Z,75.53
2017-11-03T15:46:45.657Z,68.23
2017-11-03T15:49:14.181Z,71.07
2017-11-03T15:51:42.457Z,61.97
2017-11-03T15:54:09.906Z,60.63
2017-11-03T15:56:38.092Z,63.97
2017-11-03T15:59:05.557Z,62.07
2017-11-03T16:01:33.381Z,63.07
2017-11-03T16:04:00.821Z,74.95
2017-11-03T16:06:29.028Z,65.77
2017-11-03T16:08:56.505Z,59.47
2017-11-03T16:11:24.780Z,62.07
2017-11-03T16:13:52.686Z,60.60
2017-11-03T16:16:20.924Z,60.97
2017-11-03T16:18:48.378Z,77.10
2017-11-03T16:21:15.818Z,63.13
2017-11-03T16:23:43.257Z,62.60
2017-11-03T16:26:11.102Z,60.40
2017-11-03T16:28:38.933Z,66.53
2017-11-03T16:31:07.200Z,63.47
2017-11-03T16:33:35.473Z,63.53
2017-11-03T16:36:03.761Z,62.47
2017-11-03T16:38:31.596Z,61.83
2017-11-03T16:40:59.276Z,62.00
2017-11-03T16:43:26.745Z,64.20
2017-11-03T16:45:54.220Z,64.67
2017-11-03T16:48:22.080Z,62.33
2017-11-03T16:50:49.926Z,71.35
2017-11-03T16:53:18.517Z,64.97
2017-11-03T16:55:46.277Z,64.23
2017-11-03T16:58:14.144Z,63.77
2017-11-03T17:00:42.427Z,64.17
2017-11-03T17:03:10.675Z,65.57
2017-11-03T17:05:39.288Z,65.00
2017-11-03T17:08:07.141Z,66.57
2017-11-03T17:10:36.054Z,63.97
2017-11-03T17:13:03.905Z,67.53
2017-11-03T17:15:31.741Z,67.57
2017-11-03T17:17:59.955Z,70.27
2017-11-03T17:20:28.852Z,68.40
2017-11-03T17:22:56.396Z,65.63
2017-11-03T17:25:24.241Z,68.57
2017-11-03T17:27:51.678Z,69.43
2017-11-03T17:30:19.115Z,66.93
2017-11-03T17:32:47.213Z,66.70
2017-11-03T17:35:14.646Z,78.90
2017-11-03T17:37:42.533Z,75.20
2017-11-03T17:40:10.706Z,69.53
2017-11-03T17:42:39.279Z,71.57
2017-11-03T17:45:06.712Z,69.23
2017-11-03T17:47:34.421Z,66.43
2017-11-03T17:50:02.625Z,66.63
2017-11-03T17:52:30.061Z,67.37
2017-11-03T17:54:57.946Z,67.60
2017-11-03T17:57:26.892Z,66.10
2017-11-03T17:59:54.362Z,68.87
2017-11-03T18:02:21.922Z,68.40
2017-11-03T18:04:49.381Z,68.50
2017-11-03T18:07:17.745Z,72.63
2017-11-03T18:09:46.175Z,69.53
2017-11-03T18:12:14.949Z,73.23
2017-11-03T18:14:42.785Z,73.53
2017-11-03T18:17:11.267Z,69.93
2017-11-03T18:19:38.728Z,73.97
2017-11-03T18:22:06.924Z,75.90
2017-11-03T18:24:35.886Z,74.93
2017-11-03T18:27:03.321Z,79.40
2017-11-03T18:29:31.908Z,77.87
2017-11-03T18:32:00.952Z,74.43
2017-11-03T18:34:28.810Z,75.93
2017-11-03T18:36:56.641Z,71.43
2017-11-03T18:39:24.325Z,73.43
2017-11-03T18:41:52.601Z,73.20
2017-11-03T18:44:20.038Z,76.67
2017-11-03T18:46:47.709Z,73.00
2017-11-03T18:49:15.902Z,77.50
2017-11-03T18:51:43.344Z,79.63
2017-11-03T18:54:11.113Z,80.10
2017-11-03T18:56:38.569Z,77.07
2017-11-03T18:59:06.769Z,78.43
2017-11-03T19:01:35.211Z,76.97
2017-11-03T19:04:03.777Z,73.73
2017-11-03T19:06:31.265Z,73.03
2017-11-03T19:08:59.564Z,71.67
2017-11-03T19:11:27.813Z,69.50
2017-11-03T19:13:56.401Z,70.27
2017-11-03T19:16:25.510Z,71.93
2017-11-03T19:18:52.944Z,77.00
2017-11-03T19:21:20.400Z,72.33
2017-11-03T19:23:48.836Z,77.40
2017-11-03T19:26:16.662Z,78.83
2017-11-03T19:28:44.095Z,82.00
2017-11-03T19:31:13.256Z,79.77
2017-11-03T19:33:41.835Z,76.57
2017-11-03T19:36:09.661Z,86.97
2017-11-03T19:38:38.149Z,81.40
2017-11-03T19:41:06.009Z,80.07
2017-11-03T19:43:34.213Z,88.23
2017-11-03T19:46:03.486Z,80.23
2017-11-03T19:48:30.943Z,82.73
2017-11-03T19:50:59.725Z,77.53
2017-11-03T19:53:27.573Z,74.67
2017-11-03T19:55:55.758Z,77.60
2017-11-03T19:58:23.230Z,75.40
2017-11-03T20:00:50.992Z,75.03
2017-11-03T20:03:18.421Z,72.77
2017-11-03T20:05:45.856Z,71.90
2017-11-03T20:08:14.383Z,68.30
2017-11-03T20:10:41.847Z,72.97
2017-11-03T20:13:09.261Z,73.17
2017-11-03T20:15:38.217Z,73.40
2017-11-03T20:18:05.676Z,71.17
2017-11-03T20:20:33.925Z,72.03
2017-11-03T20:23:01.678Z,69.97
2017-11-03T20:25:29.105Z,71.37
2017-11-03T20:27:57.311Z,68.27
2017-11-03T20:30:26.100Z,69.77
2017-11-03T20:32:53.537Z,68.53
2017-11-03T20:35:21.025Z,67.20
2017-11-03T20:37:48.785Z,64.70
2017-11-03T20:40:16.621Z,66.47
2017-11-03T20:42:45.405Z,65.63
2017-11-03T20:45:13.100Z,67.37
2017-11-03T20:47:41.389Z,66.60
2017-11-03T20:50:09.961Z,70.10
2017-11-03T20:52:39.066Z,66.10
2017-11-03T20:55:06.518Z,66.60
2017-11-03T20:57:35.102Z,67.97
2017-11-03T21:00:02.558Z,63.90
2017-11-03T21:02:30.429Z,66.03
2017-11-03T21:04:58.265Z,68.00
2017-11-03T21:07:25.751Z,64.87
2017-11-03T21:09:53.181Z,65.87
2017-11-03T21:12:20.613Z,63.70
2017-11-03T21:14:48.454Z,65.43
2017-11-03T21:17:16.399Z,62.57
2017-11-03T21:19:45.333Z,62.00
2017-11-03T21:22:13.421Z,65.50
2017-11-03T21:24:44.079Z,63.73
2017-11-03T21:27:12.677Z,63.53
2017-11-03T21:29:40.850Z,60.87
2017-11-03T21:32:09.832Z,61.27
2017-11-03T21:34:37.245Z,59.00
2017-11-03T21:37:05.325Z,56.60
2017-11-03T21:39:33.913Z,60.90
2017-11-03T21:42:01.737Z,58.30
2017-11-03T21:44:30.198Z,59.53
2017-11-03T21:46:57.702Z,61.50
2017-11-03T21:49:25.884Z,57.27
2017-11-03T21:51:54.418Z,54.93
2017-11-03T21:54:22.989Z,54.37
2017-11-03T21:56:50.417Z,55.53
2017-11-03T21:59:18.741Z,59.73
2017-11-03T22:01:46.947Z,62.87
2017-11-03T22:04:15.741Z,57.37
2017-11-03T22:06:44.482Z,57.80
2017-11-03T22:09:11.942Z,65.00
2017-11-03T22:11:39.764Z,67.50
2017-11-03T22:14:08.208Z,59.33
2017-11-03T22:16:36.041Z,54.33
2017-11-03T22:19:04.335Z,53.10
2017-11-03T22:21:33.282Z,51.63
2017-11-03T22:24:01.534Z,52.70
2017-11-03T22:26:29.777Z,52.53
2017-11-03T22:28:57.532Z,50.13
2017-11-03T22:31:26.319Z,48.67
2017-11-03T22:33:54.605Z,48.70
2017-11-03T22:36:22.173Z,48.97
2017-11-03T22:38:50.365Z,47.93
2017-11-03T22:41:18.619Z,47.67
2017-11-03T22:43:46.788Z,51.77
2017-11-03T22:46:14.656Z,52.83
2017-11-03T22:48:43.440Z,51.77
2017-11-03T22:51:12.549Z,55.67
2017-11-03T22:53:39.993Z,55.17
2017-11-03T22:56:08.185Z,56.73
2017-11-03T22:58:35.937Z,56.37
2017-11-03T23:01:04.137Z,54.93
2017-11-03T23:03:31.969Z,53.73
2017-11-03T23:05:59.738Z,53.13
2017-11-03T23:08:27.198Z,55.07
2017-11-03T23:10:54.631Z,54.97
2017-11-03T23:13:22.313Z,56.00
2017-11-03T23:15:50.141Z,57.93
2017-11-03T23:18:18.362Z,56.87
2017-11-03T23:20:46.832Z,55.90
2017-11-03T23:23:14.713Z,55.63
2017-11-03T23:25:42.917Z,54.47
2017-11-03T23:28:11.154Z,57.67
2017-11-03T23:30:39.352Z,56.53
2017-11-03T23:33:08.342Z,54.23
2017-11-03T23:35:36.025Z,56.43
2017-11-03T23:38:03.857Z,56.17
2017-11-03T23:40:32.069Z,60.07
2017-11-03T23:43:00.602Z,52.57
2017-11-03T23:45:29.169Z,55.43
2017-11-03T23:47:56.608Z,58.57
2017-11-03T23:50:25.128Z,55.40
2017-11-03T23:52:52.961Z,53.83
2017-11-03T23:55:21.207Z,57.13
2017-11-03T23:57:48.617Z,52.10
